createdAt,value
2022-09-04T00:03:01.709Z,99022.56
2022-09-04T00:05:53.481Z,99012.25
2022-09-04T00:09:01.532Z,99020.94
2022-09-04T00:12:08.781Z,98996.06
2022-09-04T00:15:07.508Z,99021.91
2022-09-04T00:18:08.305Z,99021.97
2022-09-04T00:21:30.050Z,99026.25
2022-09-04T00:24:20.000Z,99023.84
2022-09-04T00:27:13.206Z,99031.53
2022-09-04T00:30:07.888Z,99028.91
2022-09-04T00:33:10.388Z,99010.06
2022-09-04T00:36:02.121Z,98969.69
2022-09-04T00:38:55.041Z,99027.16
2022-09-04T00:42:02.580Z,99011.00
2022-09-04T00:45:28.062Z,99035.13
2022-09-04T00:48:37.306Z,99032.66
2022-09-04T00:51:23.849Z,99041.31
2022-09-04T00:54:37.062Z,99045.66
2022-09-04T00:57:48.217Z,99045.72
2022-09-04T01:00:36.499Z,98978.75
2022-09-04T01:03:32.306Z,99022.56
2022-09-04T01:06:50.925Z,99050.94
2022-09-04T01:10:13.126Z,99051.81
2022-09-04T01:13:39.710Z,99057.00
2022-09-04T01:16:37.828Z,99057.75
2022-09-04T01:19:36.108Z,99039.66
2022-09-04T01:22:54.113Z,99069.78
2022-09-04T01:26:18.027Z,99071.38
2022-09-04T01:29:13.202Z,99067.84
2022-09-04T01:32:17.945Z,99077.34
2022-09-04T01:35:33.076Z,99076.41
2022-09-04T01:38:22.276Z,99076.38
2022-09-04T01:41:24.404Z,99059.13
2022-09-04T01:44:12.328Z,99040.19
2022-09-04T01:47:15.441Z,99078.16
2022-09-04T01:50:10.789Z,99051.59
2022-09-04T01:53:03.849Z,99054.25
2022-09-04T01:56:04.307Z,99065.28
2022-09-04T01:59:11.643Z,99059.19
2022-09-04T02:02:13.389Z,99067.03
2022-09-04T02:05:08.519Z,99089.50
2022-09-04T02:08:13.894Z,99099.91
2022-09-04T02:11:28.228Z,99093.94
2022-09-04T02:14:24.225Z,99089.69
2022-09-04T02:17:18.288Z,99061.44
2022-09-04T02:20:21.741Z,99097.44
2022-09-04T02:23:51.906Z,99097.31
2022-09-04T02:27:00.053Z,99077.69
2022-09-04T02:30:00.009Z,99073.50
2022-09-04T02:33:18.573Z,99102.78
2022-09-04T02:36:35.054Z,99104.59
2022-09-04T02:39:42.050Z,99105.44
2022-09-04T02:42:55.238Z,99104.63
2022-09-04T02:46:02.643Z,99106.34
2022-09-04T02:49:07.458Z,99109.84
2022-09-04T02:52:18.574Z,99106.38
2022-09-04T02:55:32.033Z,99098.81
2022-09-04T02:58:36.245Z,99085.09
2022-09-04T03:01:28.828Z,99092.03
2022-09-04T03:04:31.872Z,99117.91
2022-09-04T03:07:31.499Z,99092.13
2022-09-04T03:10:20.656Z,99093.91
2022-09-04T03:13:22.814Z,99084.38
2022-09-04T03:16:53.903Z,99117.13
2022-09-04T03:19:57.173Z,99095.69
2022-09-04T03:22:58.649Z,99120.59
2022-09-04T03:26:04.860Z,99125.75
2022-09-04T03:29:10.197Z,99107.66
2022-09-04T03:31:58.422Z,99126.56
2022-09-04T03:34:56.114Z,99102.69
2022-09-04T03:38:20.567Z,99131.16
2022-09-04T03:41:13.937Z,99110.50
2022-09-04T03:44:08.125Z,99123.41
2022-09-04T03:47:05.066Z,99130.31
2022-09-04T03:50:09.921Z,99129.53
2022-09-04T03:53:09.199Z,99133.91
2022-09-04T03:56:02.872Z,99135.69
2022-09-04T03:59:02.354Z,99137.53
2022-09-04T04:02:14.881Z,99141.88
2022-09-04T04:05:36.882Z,99145.50
2022-09-04T04:08:27.441Z,99096.53
2022-09-04T04:11:29.459Z,99142.19
2022-09-04T04:14:59.286Z,99150.97
2022-09-04T04:18:13.328Z,99148.38
2022-09-04T04:21:05.517Z,99145.78
2022-09-04T04:24:09.550Z,99149.28
2022-09-04T04:27:25.569Z,99158.00
2022-09-04T04:30:16.947Z,99164.94
2022-09-04T04:33:28.339Z,99142.59
2022-09-04T04:36:45.530Z,99168.53
2022-09-04T04:39:56.167Z,99141.03
2022-09-04T04:42:48.370Z,99173.78
2022-09-04T04:45:51.916Z,99143.69
2022-09-04T04:48:57.246Z,99182.50
2022-09-04T04:51:55.890Z,99193.78
2022-09-04T04:55:13.153Z,99197.22
2022-09-04T04:58:05.717Z,99205.88
2022-09-04T05:01:21.629Z,99209.38
2022-09-04T05:04:42.131Z,99211.03
2022-09-04T05:07:46.114Z,99212.72
2022-09-04T05:10:43.657Z,99188.59
2022-09-04T05:13:56.478Z,99184.22
2022-09-04T05:17:04.790Z,99224.56
2022-09-04T05:20:00.597Z,99196.16
2022-09-04T05:23:09.503Z,99233.97
2022-09-04T05:26:33.571Z,99240.84
2022-09-04T05:29:32.827Z,99225.38
2022-09-04T05:32:39.549Z,99204.63
2022-09-04T05:35:35.204Z,99251.91
2022-09-04T05:38:46.363Z,99259.66
2022-09-04T05:41:57.637Z,99257.94
2022-09-04T05:44:52.706Z,99264.81
2022-09-04T05:47:54.756Z,99275.09
2022-09-04T05:50:53.410Z,99278.31
2022-09-04T05:54:17.731Z,99283.34
2022-09-04T05:57:41.973Z,99283.13
2022-09-04T06:00:37.722Z,99291.72
2022-09-04T06:04:02.498Z,99277.03
2022-09-04T06:07:07.433Z,99288.94
2022-09-04T06:10:08.845Z,99293.06
2022-09-04T06:13:17.113Z,99296.38
2022-09-04T06:16:39.058Z,99277.47
2022-09-04T06:19:34.515Z,99305.81
2022-09-04T06:22:48.096Z,99313.63
2022-09-04T06:26:01.589Z,99311.94
2022-09-04T06:29:05.274Z,99308.47
2022-09-04T06:32:00.056Z,99316.97
2022-09-04T06:35:09.596Z,99319.44
2022-09-04T06:38:20.919Z,99323.72
2022-09-04T06:41:22.724Z,99325.34
2022-09-04T06:44:28.372Z,99317.59
2022-09-04T06:47:30.038Z,99321.81
2022-09-04T06:50:36.774Z,99302.13
2022-09-04T06:53:29.405Z,99322.63
2022-09-04T06:56:34.513Z,99299.00
2022-09-04T06:59:47.190Z,99325.78
2022-09-04T07:03:09.665Z,99326.50
2022-09-04T07:06:04.496Z,99311.78
2022-09-04T07:08:50.570Z,99338.41
2022-09-04T07:12:13.054Z,99310.78
2022-09-04T07:15:21.314Z,99338.75
2022-09-04T07:18:41.457Z,99347.28
2022-09-04T07:22:03.883Z,99355.75
2022-09-04T07:25:05.806Z,99330.66
2022-09-04T07:28:10.750Z,99368.91
2022-09-04T07:31:04.370Z,99366.34
2022-09-04T07:34:09.534Z,99371.22
2022-09-04T07:37:27.839Z,99369.13
2022-09-04T07:40:23.243Z,99366.91
2022-09-04T07:43:30.148Z,99335.34
2022-09-04T07:46:34.721Z,99366.13
2022-09-04T07:49:43.255Z,99370.03
2022-09-04T07:53:03.031Z,99366.47
2022-09-04T07:55:58.698Z,99358.44
2022-09-04T07:58:50.144Z,99376.97
2022-09-04T08:02:00.964Z,99386.00
2022-09-04T08:05:13.402Z,99384.06
2022-09-04T08:08:09.762Z,99391.22
2022-09-04T08:11:22.023Z,99380.47
2022-09-04T08:14:19.033Z,99385.25
2022-09-04T08:17:27.257Z,99387.94
2022-09-04T08:20:38.534Z,99370.25
2022-09-04T08:23:38.049Z,99387.19
2022-09-04T08:26:43.142Z,99396.44
2022-09-04T08:29:45.536Z,99399.78
2022-09-04T08:33:10.181Z,99404.38
2022-09-04T08:36:40.212Z,99405.88
2022-09-04T08:39:34.597Z,99390.41
2022-09-04T08:42:39.610Z,99414.16
2022-09-04T08:45:44.442Z,99413.66
2022-09-04T08:48:32.244Z,99411.66
2022-09-04T08:51:40.006Z,99414.41
2022-09-04T08:54:32.454Z,99417.28
2022-09-04T08:57:58.517Z,99417.25
2022-09-04T09:01:01.246Z,99420.69
2022-09-04T09:03:57.937Z,99417.84
2022-09-04T09:07:33.663Z,99391.06
2022-09-04T09:10:47.898Z,99413.81
2022-09-04T09:14:02.493Z,99411.34
2022-09-04T09:17:02.948Z,99401.31
2022-09-04T09:20:00.935Z,99376.53
2022-09-04T09:23:26.414Z,99418.47
2022-09-04T09:26:31.041Z,99413.66
2022-09-04T09:29:29.545Z,99411.44
2022-09-04T09:32:56.592Z,99392.06
2022-09-04T09:35:57.829Z,99412.16
2022-09-04T09:39:07.598Z,99405.03
2022-09-04T09:42:21.390Z,99394.66
2022-09-04T09:45:46.097Z,99410.28
2022-09-04T09:48:47.537Z,99408.19
2022-09-04T09:51:52.858Z,99401.09
2022-09-04T09:55:17.107Z,99398.97
2022-09-04T09:58:54.773Z,99399.91
2022-09-04T10:01:54.761Z,99393.84
2022-09-04T10:04:59.778Z,99391.38
2022-09-04T10:08:01.331Z,99388.75
2022-09-04T10:11:18.358Z,99395.13
2022-09-04T10:14:27.892Z,99392.34
2022-09-04T10:17:32.394Z,99386.34
2022-09-04T10:20:30.705Z,99379.88
2022-09-04T10:23:29.345Z,99388.06
2022-09-04T10:26:15.836Z,99380.16
2022-09-04T10:29:14.606Z,99377.66
2022-09-04T10:32:19.458Z,99372.66
2022-09-04T10:35:20.554Z,99370.28
2022-09-04T10:38:38.376Z,99369.97
2022-09-04T10:41:36.804Z,99365.59
2022-09-04T10:44:41.670Z,99367.00
2022-09-04T10:47:54.352Z,99363.25
2022-09-04T10:50:54.858Z,99362.34
2022-09-04T10:53:49.890Z,99367.63
2022-09-04T10:56:54.266Z,99363.50
2022-09-04T11:00:11.618Z,99369.78
2022-09-04T11:03:11.350Z,99374.75
2022-09-04T11:06:08.644Z,99371.53
2022-09-04T11:09:02.385Z,99373.47
2022-09-04T11:11:58.601Z,99379.91
2022-09-04T11:14:56.810Z,99351.38
2022-09-04T11:18:01.875Z,99367.97
2022-09-04T11:21:14.543Z,99370.06
2022-09-04T11:24:13.322Z,99369.03
2022-09-04T11:27:15.729Z,99375.78
2022-09-04T11:30:06.425Z,99372.75
2022-09-04T11:33:04.966Z,99372.34
2022-09-04T11:36:12.470Z,99370.53
2022-09-04T11:39:32.730Z,99368.41
2022-09-04T11:42:32.952Z,99340.16
2022-09-04T11:45:32.223Z,99360.25
2022-09-04T11:48:21.381Z,99367.84
2022-09-04T11:51:17.813Z,99368.44
2022-09-04T11:54:30.584Z,99361.44
2022-09-04T11:57:44.311Z,99334.91
2022-09-04T12:00:58.381Z,99364.69
2022-09-04T12:04:06.584Z,99367.56
2022-09-04T12:06:52.817Z,99367.56
2022-09-04T12:10:09.202Z,99364.19
2022-09-04T12:13:14.780Z,99361.34
2022-09-04T12:16:42.237Z,99359.25
2022-09-04T12:19:52.565Z,99366.56
2022-09-04T12:22:54.539Z,99367.38
2022-09-04T12:26:02.796Z,99365.41
2022-09-04T12:29:20.849Z,99348.31
2022-09-04T12:32:28.561Z,99365.88
2022-09-04T12:35:43.870Z,99361.13
2022-09-04T12:39:02.806Z,99360.22
2022-09-04T12:42:12.869Z,99359.97
2022-09-04T12:45:17.366Z,99360.19
2022-09-04T12:48:33.179Z,99360.66
2022-09-04T12:51:23.989Z,99361.44
2022-09-04T12:54:37.110Z,99364.09
2022-09-04T12:57:46.622Z,99363.53
2022-09-04T13:00:48.685Z,99334.88
2022-09-04T13:04:01.189Z,99360.13
2022-09-04T13:07:20.981Z,99361.94
2022-09-04T13:10:48.381Z,99361.84
2022-09-04T13:14:07.530Z,99344.47
2022-09-04T13:17:12.963Z,99374.91
2022-09-04T13:20:38.946Z,99368.66
2022-09-04T13:23:35.588Z,99368.47
2022-09-04T13:26:37.948Z,99376.56
2022-09-04T13:29:30.105Z,99370.41
2022-09-04T13:32:22.575Z,99367.28
2022-09-04T13:35:39.056Z,99362.44
2022-09-04T13:38:48.580Z,99367.63
2022-09-04T13:41:45.653Z,99365.28
2022-09-04T13:44:56.872Z,99361.41
2022-09-04T13:48:07.418Z,99326.97
2022-09-04T13:51:01.843Z,99357.47
2022-09-04T13:54:09.095Z,99342.88
2022-09-04T13:57:04.264Z,99364.88
2022-09-04T13:59:50.801Z,99347.44
2022-09-04T14:02:39.101Z,99326.19
2022-09-04T14:05:28.208Z,99351.81
2022-09-04T14:08:21.129Z,99352.06
2022-09-04T14:11:26.369Z,99363.22
2022-09-04T14:14:33.201Z,99354.31
2022-09-04T14:17:28.230Z,99330.66
2022-09-04T14:20:45.282Z,99352.56
2022-09-04T14:23:37.681Z,99340.50
2022-09-04T14:26:33.374Z,99346.59
2022-09-04T14:29:36.209Z,99350.34
2022-09-04T14:32:28.287Z,99340.28
2022-09-04T14:35:46.925Z,99349.97
2022-09-04T14:39:09.546Z,99347.78
2022-09-04T14:42:42.164Z,99353.19
2022-09-04T14:46:15.099Z,99354.25
2022-09-04T14:49:16.574Z,99360.22
2022-09-04T14:52:16.615Z,99335.38
2022-09-04T14:55:02.969Z,99335.22
2022-09-04T14:58:08.199Z,99342.78
2022-09-04T15:01:08.277Z,99350.00
2022-09-04T15:04:19.050Z,99356.69
2022-09-04T15:07:49.481Z,99346.25
2022-09-04T15:10:47.647Z,99343.97
2022-09-04T15:13:46.596Z,99346.06
2022-09-04T15:16:39.227Z,99346.25
2022-09-04T15:19:57.719Z,99343.34
2022-09-04T15:23:01.440Z,99322.00
2022-09-04T15:26:02.851Z,99322.50
2022-09-04T15:28:54.873Z,99330.97
2022-09-04T15:31:43.413Z,99334.38
2022-09-04T15:34:30.884Z,99325.00
2022-09-04T15:37:25.738Z,99320.56
2022-09-04T15:40:24.522Z,99337.22
2022-09-04T15:43:17.154Z,99339.03
2022-09-04T15:46:09.524Z,99339.09
2022-09-04T15:49:15.866Z,99336.03
2022-09-04T15:52:22.051Z,99330.91
2022-09-04T15:55:33.589Z,99332.19
2022-09-04T15:58:29.314Z,99297.94
2022-09-04T16:01:21.541Z,99273.84
2022-09-04T16:04:23.310Z,99325.09
2022-09-04T16:07:20.182Z,99332.63
2022-09-04T16:10:15.602Z,99328.44
2022-09-04T16:13:09.328Z,99325.50
2022-09-04T16:16:12.456Z,99309.69
2022-09-04T16:19:08.852Z,99312.59
2022-09-04T16:22:22.993Z,99330.28
2022-09-04T16:25:19.160Z,99324.03
2022-09-04T16:28:19.935Z,99292.16
2022-09-04T16:31:12.317Z,99318.88
2022-09-04T16:34:05.944Z,99286.91
2022-09-04T16:37:01.624Z,99287.78
2022-09-04T16:40:21.660Z,99313.31
2022-09-04T16:43:29.071Z,99283.34
2022-09-04T16:46:29.499Z,99298.38
2022-09-04T16:49:25.706Z,99283.59
2022-09-04T16:52:36.762Z,99313.94
2022-09-04T16:55:27.131Z,99289.00
2022-09-04T16:58:19.792Z,99287.44
2022-09-04T17:01:22.391Z,99313.69
2022-09-04T17:04:40.243Z,99281.03
2022-09-04T17:07:37.772Z,99284.16
2022-09-04T17:10:36.361Z,99292.84
2022-09-04T17:13:48.389Z,99303.44
2022-09-04T17:17:22.850Z,99259.19
2022-09-04T17:20:22.395Z,99292.91
2022-09-04T17:28:55.574Z,99312.19
2022-09-04T17:29:11.930Z,99319.38
2022-09-04T17:29:51.787Z,99307.69
2022-09-04T17:37:06.076Z,99318.59
2022-09-04T17:40:51.892Z,99278.66
2022-09-04T17:40:57.398Z,99322.88
2022-09-04T17:43:23.263Z,99308.56
2022-09-04T17:46:28.771Z,99308.78
2022-09-04T17:49:26.647Z,99289.63
2022-09-04T17:52:24.660Z,99315.41
2022-09-04T17:55:13.109Z,99295.94
2022-09-04T17:58:09.441Z,99328.25
2022-09-04T18:01:15.547Z,99299.25
2022-09-04T18:04:22.868Z,99334.81
2022-09-04T18:08:09.484Z,99341.34
2022-09-04T18:10:57.884Z,99325.41
2022-09-04T18:14:23.035Z,99343.91
2022-09-04T18:17:21.565Z,99307.91
2022-09-04T18:20:19.661Z,99286.34
2022-09-04T18:23:26.993Z,99353.69
2022-09-04T18:26:22.494Z,99351.59
2022-09-04T18:30:03.410Z,99360.56
2022-09-04T18:37:08.058Z,99365.63
2022-09-04T18:37:26.721Z,99372.13
2022-09-04T18:39:24.062Z,99368.34
2022-09-04T18:50:25.656Z,99387.75
2022-09-04T18:50:48.581Z,99375.44
2022-09-04T18:51:03.061Z,99372.81
2022-09-04T18:51:58.262Z,99372.44
2022-09-04T18:54:50.877Z,99396.06
2022-09-04T18:57:49.213Z,99361.28
2022-09-04T19:00:43.789Z,99400.03
2022-09-04T19:03:47.884Z,99410.13
2022-09-04T19:06:38.212Z,99340.31
2022-09-04T19:09:30.913Z,99386.50
2022-09-04T19:12:35.628Z,99397.59
2022-09-04T19:15:37.337Z,99408.75
2022-09-04T19:18:43.757Z,99414.19
2022-09-04T19:21:58.211Z,99417.34
2022-09-04T19:24:53.100Z,99401.31
2022-09-04T19:27:44.026Z,99414.34
2022-09-04T19:30:43.926Z,99366.72
2022-09-04T19:33:44.693Z,99354.66
2022-09-04T19:36:47.222Z,99391.69
2022-09-04T19:45:54.772Z,99403.72
2022-09-04T19:46:04.236Z,99421.91
2022-09-04T19:46:52.775Z,99418.66
2022-09-04T19:53:12.861Z,99417.09
2022-09-04T19:53:24.173Z,99395.03
2022-09-04T19:56:54.840Z,99396.94
2022-09-04T19:59:57.826Z,99423.03
2022-09-04T20:03:07.673Z,99382.81
2022-09-04T20:06:21.479Z,99371.63
2022-09-04T20:09:33.528Z,99420.13
2022-09-04T20:12:42.148Z,99417.50
2022-09-04T20:15:31.830Z,99392.69
2022-09-04T20:18:26.134Z,99418.75
2022-09-04T20:21:32.275Z,99361.28
2022-09-04T20:24:24.414Z,99403.31
2022-09-04T20:27:42.063Z,99414.75
2022-09-04T20:30:30.839Z,99378.00
2022-09-04T20:33:26.094Z,99382.38
2022-09-04T20:36:15.498Z,99402.50
2022-09-04T20:39:12.972Z,99368.22
2022-09-04T20:42:04.409Z,99408.63
2022-09-04T20:46:44.202Z,99381.34
2022-09-04T20:52:57.192Z,99409.06
2022-09-04T20:52:59.846Z,99411.53
2022-09-04T20:54:47.870Z,99403.91
2022-09-04T21:01:16.303Z,99385.94
2022-09-04T21:03:08.846Z,99413.78
2022-09-04T21:04:42.627Z,99417.19
2022-09-04T21:07:44.771Z,99359.69
2022-09-04T21:10:37.736Z,99410.41
2022-09-04T21:13:29.878Z,99410.53
2022-09-04T21:16:43.924Z,99398.72
2022-09-04T21:20:05.601Z,99393.03
2022-09-04T21:23:16.759Z,99413.69
2022-09-04T21:26:28.177Z,99418.97
2022-09-04T21:29:42.805Z,99418.22
2022-09-04T21:32:45.080Z,99424.38
2022-09-04T21:35:50.350Z,99430.47
2022-09-04T21:39:19.617Z,99431.41
2022-09-04T21:42:23.285Z,99426.41
2022-09-04T21:45:38.429Z,99423.97
2022-09-04T21:48:48.149Z,99412.06
2022-09-04T21:51:51.036Z,99428.50
2022-09-04T22:00:36.802Z,99406.97
2022-09-04T22:02:37.647Z,99444.41
2022-09-04T22:02:45.889Z,99424.44
2022-09-04T22:05:09.614Z,99440.13
2022-09-04T22:13:27.549Z,99444.47
2022-09-04T22:13:41.780Z,99447.25
2022-09-04T22:15:16.458Z,99449.00
2022-09-04T22:18:25.057Z,99437.88
2022-09-04T22:21:26.903Z,99455.91
2022-09-04T22:24:30.309Z,99459.47
2022-09-04T22:28:09.223Z,99448.38
2022-09-04T22:31:16.075Z,99463.06
2022-09-04T22:34:18.566Z,99460.56
2022-09-04T22:37:29.863Z,99463.16
2022-09-04T22:40:35.756Z,99464.13
2022-09-04T22:43:49.675Z,99438.31
2022-09-04T22:46:52.514Z,99434.81
2022-09-04T22:49:57.773Z,99406.38
2022-09-04T22:53:12.408Z,99429.72
2022-09-04T22:56:23.472Z,99418.59
2022-09-04T22:59:26.919Z,99459.97
2022-09-04T23:03:04.145Z,99463.56
2022-09-04T23:05:50.876Z,99464.53
2022-09-04T23:13:49.106Z,99468.09
2022-09-04T23:13:50.644Z,99467.22
2022-09-04T23:15:59.896Z,99469.06
2022-09-04T23:25:56.831Z,99469.91
2022-09-04T23:26:45.501Z,99471.72
2022-09-04T23:26:59.507Z,99470.88
2022-09-04T23:30:05.240Z,99472.66
2022-09-04T23:33:27.356Z,99452.88
2022-09-04T23:36:47.098Z,99494.44
2022-09-04T23:39:44.453Z,99470.28
2022-09-04T23:42:56.404Z,99470.28
2022-09-04T23:46:13.953Z,99490.16
2022-09-04T23:49:37.684Z,99490.22
2022-09-04T23:52:49.603Z,99491.13
2022-09-04T23:56:10.066Z,99492.88
2022-09-04T23:59:38.222Z,99492.91
